createdAt,value
2023-04-25T00:02:35.915Z,1.10
2023-04-25T00:05:39.990Z,0.90
2023-04-25T00:08:42.788Z,1.43
2023-04-25T00:11:46.696Z,1.55
2023-04-25T00:14:50.586Z,1.50
2023-04-25T00:17:53.861Z,1.20
2023-04-25T00:20:56.710Z,1.10
2023-04-25T00:23:59.313Z,1.02
2023-04-25T00:27:03.191Z,1.27
2023-04-25T00:30:06.961Z,1.20
2023-04-25T00:33:09.624Z,1.23
2023-04-25T00:36:12.256Z,1.00
2023-04-25T00:39:14.820Z,1.00
2023-04-25T00:42:18.705Z,1.03
2023-04-25T00:45:21.843Z,1.00
2023-04-25T00:48:24.457Z,1.10
2023-04-25T00:51:28.490Z,1.00
2023-04-25T00:54:31.764Z,1.10
2023-04-25T00:57:35.697Z,1.10
2023-04-25T01:00:38.787Z,1.23
2023-04-25T01:03:42.808Z,1.40
2023-04-25T01:06:46.028Z,1.17
2023-04-25T01:09:48.672Z,1.08
2023-04-25T01:12:52.531Z,1.10
2023-04-25T01:15:55.087Z,1.20
2023-04-25T01:18:57.702Z,1.33
2023-04-25T01:22:01.838Z,0.90
2023-04-25T01:25:04.817Z,1.13
2023-04-25T01:28:10.372Z,1.35
2023-04-25T01:31:13.778Z,1.67
2023-04-25T01:34:16.328Z,1.27
2023-04-25T01:37:20.483Z,1.57
2023-04-25T01:40:23.507Z,1.70
2023-04-25T01:43:27.428Z,1.30
2023-04-25T01:46:30.249Z,1.37
2023-04-25T01:49:32.826Z,1.30
2023-04-25T01:52:36.702Z,1.30
2023-04-25T01:55:39.323Z,1.53
2023-04-25T01:58:41.839Z,1.90
2023-04-25T02:01:44.319Z,1.03
2023-04-25T02:04:46.894Z,1.40
2023-04-25T02:07:50.715Z,1.40
2023-04-25T02:10:53.204Z,1.37
2023-04-25T02:13:55.766Z,1.50
2023-04-25T02:16:58.478Z,1.40
2023-04-25T02:20:01.265Z,1.45
2023-04-25T02:23:05.375Z,1.30
2023-04-25T02:26:07.999Z,1.87
2023-04-25T02:29:11.311Z,1.40
2023-04-25T02:32:13.779Z,1.63
2023-04-25T02:35:16.650Z,2.00
2023-04-25T02:38:20.533Z,1.33
2023-04-25T02:41:23.089Z,1.30
2023-04-25T02:44:25.669Z,1.37
2023-04-25T02:47:28.292Z,1.57
2023-04-25T02:50:31.052Z,1.50
2023-04-25T02:53:34.875Z,1.40
2023-04-25T02:56:37.401Z,1.20
2023-04-25T02:59:39.958Z,1.30
2023-04-25T03:02:42.526Z,1.30
2023-04-25T03:05:45.318Z,1.67
2023-04-25T03:08:49.195Z,1.25
2023-04-25T03:11:51.783Z,1.47
2023-04-25T03:14:54.302Z,1.30
2023-04-25T03:17:56.810Z,1.53
2023-04-25T03:20:59.444Z,1.33
2023-04-25T03:24:05.716Z,1.10
2023-04-25T03:27:08.303Z,1.40
2023-04-25T03:30:11.337Z,1.60
2023-04-25T03:33:19.016Z,1.40
2023-04-25T03:36:21.550Z,2.23
2023-04-25T03:39:25.642Z,1.67
2023-04-25T03:42:28.128Z,1.60
2023-04-25T03:45:30.714Z,1.53
2023-04-25T03:48:33.304Z,1.70
2023-04-25T03:51:35.803Z,1.80
2023-04-25T03:54:39.690Z,1.60
2023-04-25T03:57:42.185Z,1.70
2023-04-25T04:00:44.793Z,1.60
2023-04-25T04:03:47.545Z,1.93
2023-04-25T04:06:50.653Z,1.70
2023-04-25T04:09:54.748Z,1.55
2023-04-25T04:12:57.425Z,1.90
2023-04-25T04:16:00.179Z,2.03
2023-04-25T04:19:02.970Z,1.90
2023-04-25T04:22:08.189Z,2.10
2023-04-25T04:25:12.569Z,1.57
2023-04-25T04:28:15.289Z,1.33
2023-04-25T04:31:20.443Z,1.50
2023-04-25T04:34:23.117Z,1.70
2023-04-25T04:37:25.633Z,1.70
2023-04-25T04:40:31.394Z,2.20
2023-04-25T04:43:34.240Z,1.70
2023-04-25T04:46:38.983Z,1.70
2023-04-25T04:49:41.888Z,1.63
2023-04-25T04:52:44.713Z,1.70
2023-04-25T04:55:48.709Z,2.17
2023-04-25T04:58:51.483Z,1.90
2023-04-25T05:01:54.942Z,1.70
2023-04-25T05:04:58.267Z,1.70
2023-04-25T05:08:01.184Z,1.83
2023-04-25T05:11:05.731Z,1.80
2023-04-25T05:14:08.314Z,1.50
2023-04-25T05:17:11.297Z,2.00
2023-04-25T05:20:15.037Z,1.75
2023-04-25T05:26:21.579Z,2.13
2023-04-25T05:29:24.268Z,1.83
2023-04-25T05:32:27.161Z,1.50
2023-04-25T05:35:29.815Z,1.83
2023-04-25T05:38:34.684Z,1.90
2023-04-25T05:41:39.031Z,1.80
2023-04-25T05:44:41.657Z,2.10
2023-04-25T05:47:44.357Z,1.80
2023-04-25T05:50:46.949Z,1.73
2023-04-25T05:53:49.776Z,1.63
2023-04-25T05:56:54.385Z,1.65
2023-04-25T05:59:56.987Z,2.00
2023-04-25T06:02:59.868Z,1.70
2023-04-25T06:06:02.784Z,1.70
2023-04-25T06:09:05.544Z,1.67
2023-04-25T06:12:09.587Z,1.87
2023-04-25T06:15:24.192Z,1.80
2023-04-25T06:18:30.916Z,1.50
2023-04-25T06:21:33.637Z,1.33
2023-04-25T06:24:36.546Z,1.65
2023-04-25T06:27:40.562Z,1.30
2023-04-25T06:30:43.198Z,1.50
2023-04-25T06:33:45.855Z,1.43
2023-04-25T06:36:48.542Z,1.80
2023-04-25T06:39:51.228Z,1.80
2023-04-25T06:42:55.273Z,1.75
2023-04-25T06:45:58.100Z,1.50
2023-04-25T06:49:00.835Z,1.42
2023-04-25T06:52:03.882Z,1.05
2023-04-25T06:55:07.321Z,1.65
2023-04-25T06:58:11.533Z,1.70
2023-04-25T07:01:14.217Z,1.60
2023-04-25T07:04:17.127Z,2.13
2023-04-25T07:07:20.403Z,1.88
2023-04-25T07:10:23.239Z,1.90
2023-04-25T07:13:27.191Z,1.70
2023-04-25T07:16:29.952Z,1.67
2023-04-25T07:19:32.951Z,2.55
2023-04-25T07:22:35.626Z,2.20
2023-04-25T07:25:38.428Z,1.70
2023-04-25T07:28:42.563Z,2.35
2023-04-25T07:31:45.271Z,1.67
2023-04-25T07:34:47.866Z,2.20
2023-04-25T07:37:50.457Z,2.60
2023-04-25T07:40:53.191Z,2.27
2023-04-25T07:43:57.228Z,2.22
2023-04-25T07:47:00.043Z,2.57
2023-04-25T07:50:03.854Z,3.10
2023-04-25T07:53:06.477Z,2.70
2023-04-25T07:56:10.269Z,2.97
2023-04-25T07:59:14.289Z,2.60
2023-04-25T08:02:16.861Z,3.10
2023-04-25T08:05:22.170Z,2.50
2023-04-25T08:08:25.483Z,2.73
2023-04-25T08:11:28.105Z,3.03
2023-04-25T08:14:36.766Z,2.90
2023-04-25T08:17:39.829Z,3.10
2023-04-25T08:20:42.648Z,3.00
2023-04-25T08:23:45.338Z,3.37
2023-04-25T08:26:48.014Z,2.70
2023-04-25T08:29:52.049Z,3.43
2023-04-25T08:32:54.797Z,2.97
2023-04-25T08:35:57.787Z,2.92
2023-04-25T08:39:00.770Z,2.63
2023-04-25T08:42:05.629Z,2.90
2023-04-25T08:45:10.817Z,3.03
2023-04-25T08:48:15.563Z,2.93
2023-04-25T08:51:25.498Z,3.10
2023-04-25T08:54:34.296Z,2.80
2023-04-25T08:57:39.043Z,3.13
2023-04-25T09:00:43.138Z,2.85
2023-04-25T09:03:46.758Z,3.20
2023-04-25T09:06:49.640Z,2.70
2023-04-25T09:09:52.315Z,2.93
2023-04-25T09:13:05.689Z,2.70
2023-04-25T09:16:12.642Z,3.17
2023-04-25T09:19:32.009Z,2.47
2023-04-25T09:22:41.292Z,3.07
2023-04-25T09:25:44.444Z,2.50
2023-04-25T09:28:48.982Z,2.55
2023-04-25T09:31:53.088Z,3.03
2023-04-25T09:34:56.829Z,2.90
2023-04-25T09:41:02.706Z,2.60
2023-04-25T09:47:11.994Z,3.60
2023-04-25T09:50:20.117Z,3.27
2023-04-25T09:53:22.680Z,3.50
2023-04-25T09:56:25.492Z,3.80
2023-04-25T09:59:28.439Z,3.10
2023-04-25T10:02:33.242Z,3.67
2023-04-25T10:05:36.694Z,3.43
2023-04-25T10:08:39.821Z,1.75
2023-04-25T10:11:42.744Z,1.90
2023-04-25T10:14:45.468Z,1.98
2023-04-25T10:17:49.801Z,1.40
2023-04-25T10:20:54.283Z,1.00
2023-04-25T10:23:57.369Z,1.07
2023-04-25T10:27:00.517Z,1.38
2023-04-25T10:30:05.252Z,1.20
2023-04-25T10:33:18.711Z,1.30
2023-04-25T10:36:23.714Z,1.60
2023-04-25T10:39:27.582Z,2.10
2023-04-25T10:42:31.114Z,2.07
2023-04-25T10:45:53.193Z,2.00
2023-04-25T10:48:58.662Z,2.20
2023-04-25T10:52:14.978Z,1.90
2023-04-25T10:55:17.558Z,2.10
2023-04-25T10:58:23.361Z,2.77
2023-04-25T11:01:27.459Z,2.70
2023-04-25T11:04:33.257Z,3.13
2023-04-25T11:07:40.257Z,2.80
2023-04-25T11:10:43.339Z,1.20
2023-04-25T11:13:46.000Z,1.70
2023-04-25T11:16:48.605Z,1.47
2023-04-25T11:19:52.570Z,1.43
2023-04-25T11:22:55.695Z,1.40
2023-04-25T11:25:58.488Z,2.33
2023-04-25T11:29:01.924Z,2.05
2023-04-25T11:32:04.769Z,2.25
2023-04-25T11:35:09.481Z,1.70
2023-04-25T11:38:12.570Z,2.30
2023-04-25T11:41:15.103Z,1.77
2023-04-25T11:44:18.224Z,2.03
2023-04-25T11:47:20.808Z,1.83
2023-04-25T11:50:24.837Z,1.97
2023-04-25T11:53:29.302Z,1.73
2023-04-25T11:56:32.191Z,1.80
2023-04-25T11:59:34.794Z,1.77
2023-04-25T12:02:37.754Z,2.13
2023-04-25T12:05:42.060Z,2.33
2023-04-25T12:09:04.932Z,2.27
2023-04-25T12:12:08.126Z,2.67
2023-04-25T12:15:12.139Z,2.45
2023-04-25T12:18:14.810Z,2.53
2023-04-25T12:21:19.112Z,3.03
2023-04-25T12:24:26.416Z,2.73
2023-04-25T12:27:29.624Z,2.53
2023-04-25T12:30:33.116Z,2.15
2023-04-25T12:33:36.979Z,3.10
2023-04-25T12:36:41.450Z,3.57
2023-04-25T12:39:43.992Z,3.13
2023-04-25T12:42:46.574Z,2.93
2023-04-25T12:48:53.709Z,2.83
2023-04-25T12:51:57.740Z,3.20
2023-04-25T12:55:00.323Z,3.10
2023-04-25T12:58:03.980Z,2.67
2023-04-25T13:04:09.374Z,3.17
2023-04-25T13:07:13.391Z,2.70
2023-04-25T13:10:16.628Z,3.10
2023-04-25T13:13:19.156Z,3.25
2023-04-25T13:16:22.640Z,3.03
2023-04-25T13:22:29.104Z,2.67
2023-04-25T13:25:31.647Z,2.60
2023-04-25T13:28:34.218Z,2.77
2023-04-25T13:31:36.807Z,3.33
2023-04-25T13:34:39.474Z,3.47
2023-04-25T13:37:43.358Z,4.35
2023-04-25T13:40:46.511Z,4.03
2023-04-25T13:43:49.968Z,3.65
2023-04-25T13:49:55.540Z,4.10
2023-04-25T13:52:59.564Z,4.35
2023-04-25T13:56:02.453Z,4.13
2023-04-25T13:59:05.062Z,5.13
2023-04-25T14:02:08.301Z,5.53
2023-04-25T14:05:11.972Z,4.82
2023-04-25T14:08:16.168Z,4.67
2023-04-25T14:11:19.459Z,4.40
2023-04-25T14:14:22.649Z,4.63
2023-04-25T14:17:25.259Z,5.72
2023-04-25T14:20:28.088Z,4.67
2023-04-25T14:23:31.952Z,4.63
2023-04-25T14:26:35.498Z,3.70
2023-04-25T14:29:38.081Z,3.23
2023-04-25T14:32:40.708Z,3.22
2023-04-25T14:35:43.492Z,3.00
2023-04-25T14:38:47.713Z,2.88
2023-04-25T14:41:50.325Z,2.80
2023-04-25T14:44:52.892Z,3.00
2023-04-25T14:47:55.909Z,3.08
2023-04-25T14:50:58.545Z,2.40
2023-04-25T14:54:02.788Z,2.60
2023-04-25T14:57:05.379Z,2.23
2023-04-25T15:00:10.487Z,2.38
2023-04-25T15:03:14.135Z,2.43
2023-04-25T15:06:17.308Z,2.47
2023-04-25T15:09:21.441Z,2.35
2023-04-25T15:12:23.984Z,3.30
2023-04-25T15:15:27.613Z,3.15
2023-04-25T15:18:30.228Z,2.80
2023-04-25T15:21:32.842Z,3.28
2023-04-25T15:24:37.358Z,3.90
2023-04-25T15:27:44.587Z,3.37
2023-04-25T15:30:47.197Z,3.80
2023-04-25T15:33:50.265Z,2.78
2023-04-25T15:36:53.000Z,2.70
2023-04-25T15:40:07.395Z,3.05
2023-04-25T15:43:15.526Z,3.20
2023-04-25T15:46:18.138Z,3.17
2023-04-25T15:49:21.748Z,3.63
2023-04-25T15:55:28.571Z,2.90
2023-04-25T15:58:31.209Z,2.87
2023-04-25T16:01:34.788Z,3.45
2023-04-25T16:04:38.364Z,3.37
2023-04-25T16:07:41.682Z,3.40
2023-04-25T16:10:45.777Z,3.72
2023-04-25T16:13:48.393Z,3.80
2023-04-25T16:16:51.397Z,4.10
2023-04-25T16:19:53.963Z,3.30
2023-04-25T16:22:56.566Z,4.13
2023-04-25T16:26:00.553Z,4.00
2023-04-25T16:29:04.499Z,3.80
2023-04-25T16:32:07.485Z,3.63
2023-04-25T16:35:10.423Z,4.32
2023-04-25T16:38:13.001Z,3.78
2023-04-25T16:41:16.943Z,3.40
2023-04-25T16:44:19.473Z,3.20
2023-04-25T16:47:22.218Z,3.47
2023-04-25T16:50:24.760Z,4.07
2023-04-25T16:53:27.410Z,3.57
2023-04-25T16:56:31.324Z,4.05
2023-04-25T16:59:33.870Z,3.90
2023-04-25T17:02:36.587Z,3.20
2023-04-25T17:05:39.279Z,4.18
2023-04-25T17:08:42.401Z,3.70
2023-04-25T17:11:46.494Z,3.67
2023-04-25T17:14:50.053Z,4.30
2023-04-25T17:20:55.865Z,3.73
2023-04-25T17:23:59.183Z,3.47
2023-04-25T17:27:03.206Z,3.13
2023-04-25T17:30:07.105Z,3.67
2023-04-25T17:33:09.649Z,3.90
2023-04-25T17:36:12.483Z,3.20
2023-04-25T17:39:17.314Z,2.72
2023-04-25T17:42:21.780Z,4.80
2023-04-25T17:45:24.512Z,4.07
2023-04-25T17:48:27.443Z,4.32
2023-04-25T17:51:30.156Z,4.45
2023-04-25T17:54:32.944Z,4.07
2023-04-25T17:57:37.056Z,3.58
2023-04-25T18:00:39.920Z,3.40
2023-04-25T18:03:45.338Z,3.83
2023-04-25T18:06:48.097Z,3.50
2023-04-25T18:09:50.598Z,3.07
2023-04-25T18:12:54.474Z,4.53
2023-04-25T18:15:57.339Z,4.20
2023-04-25T18:19:05.265Z,5.13
2023-04-25T18:22:07.825Z,4.93
2023-04-25T18:25:11.223Z,6.50
2023-04-25T18:28:15.169Z,5.57
2023-04-25T18:31:20.120Z,5.50
2023-04-25T18:34:26.713Z,5.77
2023-04-25T18:37:30.038Z,6.00
2023-04-25T18:40:32.665Z,5.40
2023-04-25T18:43:36.528Z,5.40
2023-04-25T18:46:41.276Z,5.40
2023-04-25T18:49:43.900Z,5.93
2023-04-25T18:52:46.506Z,6.00
2023-04-25T18:55:49.295Z,6.57
2023-04-25T18:58:53.849Z,6.70
2023-04-25T19:01:56.679Z,6.43
2023-04-25T19:04:59.232Z,5.53
2023-04-25T19:08:04.096Z,6.77
2023-04-25T19:11:18.113Z,5.90
2023-04-25T19:14:25.902Z,6.10
2023-04-25T19:17:30.278Z,6.10
2023-04-25T19:20:34.085Z,5.70
2023-04-25T19:23:36.771Z,5.25
2023-04-25T19:26:39.316Z,4.97
2023-04-25T19:29:48.329Z,5.97
2023-04-25T19:32:51.027Z,5.00
2023-04-25T19:35:53.600Z,6.20
2023-04-25T19:39:01.979Z,7.57
2023-04-25T19:42:04.776Z,6.23
2023-04-25T19:45:10.312Z,5.63
2023-04-25T19:48:14.078Z,4.97
2023-04-25T19:51:16.653Z,4.83
2023-04-25T19:54:19.919Z,4.33
2023-04-25T19:57:24.343Z,5.50
2023-04-25T20:00:28.384Z,4.72
2023-04-25T20:03:30.967Z,5.30
2023-04-25T20:06:33.603Z,4.93
2023-04-25T20:09:36.734Z,5.83
2023-04-25T20:12:40.129Z,5.60
2023-04-25T20:15:44.024Z,5.63
2023-04-25T20:18:47.177Z,5.10
2023-04-25T20:21:49.746Z,4.80
2023-04-25T20:24:52.570Z,4.23
2023-04-25T20:27:55.209Z,4.43
2023-04-25T20:31:00.381Z,4.68
2023-04-25T20:34:06.468Z,4.53
2023-04-25T20:37:09.367Z,5.23
2023-04-25T20:40:12.773Z,4.78
2023-04-25T20:43:15.277Z,4.32
2023-04-25T20:46:19.379Z,4.47
2023-04-25T20:49:22.011Z,4.60
2023-04-25T20:52:24.664Z,4.63
2023-04-25T20:55:27.180Z,4.40
2023-04-25T20:58:29.686Z,4.73
2023-04-25T21:01:34.381Z,4.73
2023-04-25T21:04:37.143Z,4.60
2023-04-25T21:07:39.936Z,5.33
2023-04-25T21:10:42.612Z,4.93
2023-04-25T21:13:45.168Z,5.50
2023-04-25T21:16:49.150Z,4.47
2023-04-25T21:19:51.884Z,4.80
2023-04-25T21:22:54.600Z,4.70
2023-04-25T21:25:57.258Z,4.95
2023-04-25T21:28:59.777Z,5.30
2023-04-25T21:32:03.754Z,4.37
2023-04-25T21:35:07.280Z,4.77
2023-04-25T21:38:09.885Z,4.68
2023-04-25T21:41:12.498Z,5.40
2023-04-25T21:44:15.640Z,4.70
2023-04-25T21:47:19.654Z,4.72
2023-04-25T21:50:22.444Z,5.20
2023-04-25T21:53:26.403Z,5.13
2023-04-25T21:56:28.970Z,5.47
2023-04-25T21:59:32.822Z,5.63
2023-04-25T22:02:37.119Z,5.07
2023-04-25T22:05:39.824Z,4.77
2023-04-25T22:08:43.117Z,5.07
2023-04-25T22:11:45.683Z,4.45
2023-04-25T22:14:48.873Z,4.97
2023-04-25T22:17:54.995Z,4.90
2023-04-25T22:20:57.905Z,5.50
2023-04-25T22:24:00.513Z,5.10
2023-04-25T22:27:03.429Z,5.23
2023-04-25T22:30:09.279Z,5.15
2023-04-25T22:33:13.174Z,5.27
2023-04-25T22:36:15.786Z,5.03
2023-04-25T22:39:19.223Z,4.30
2023-04-25T22:42:21.889Z,5.03
2023-04-25T22:45:24.452Z,4.23
2023-04-25T22:48:28.345Z,5.23
2023-04-25T22:51:30.989Z,4.90
2023-04-25T22:54:33.962Z,4.50
2023-04-25T22:57:38.176Z,5.45
2023-04-25T23:00:41.429Z,5.30
2023-04-25T23:03:45.470Z,5.20
2023-04-25T23:06:48.834Z,4.13
2023-04-25T23:09:51.986Z,5.47
2023-04-25T23:12:57.353Z,5.35
2023-04-25T23:16:05.882Z,4.23
2023-04-25T23:19:10.682Z,5.00
2023-04-25T23:22:13.225Z,4.23
2023-04-25T23:25:16.402Z,4.40
2023-04-25T23:28:18.901Z,4.28
2023-04-25T23:31:21.557Z,3.97
2023-04-25T23:34:25.496Z,4.80
2023-04-25T23:37:28.188Z,4.27
2023-04-25T23:40:31.799Z,4.27
2023-04-25T23:43:34.321Z,4.63
2023-04-25T23:46:36.968Z,4.27
2023-04-25T23:49:41.009Z,4.63
2023-04-25T23:52:43.720Z,5.40
2023-04-25T23:55:46.289Z,5.10
2023-04-25T23:58:48.920Z,4.20
